sensor_id;sensor_type;location;lat;lon;timestamp;P1;durP1;ratioP1;P2;durP2;ratioP2
23519;SDS011;11936;50.820;4.336;2024-03-02T00:02:12;0.75;;;0.75;;
23519;SDS011;11936;50.820;4.336;2024-03-02T00:04:39;0.60;;;0.60;;
23519;SDS011;11936;50.820;4.336;2024-03-02T00:07:04;0.50;;;0.50;;
23519;SDS011;11936;50.820;4.336;2024-03-02T00:09:32;1.45;;;0.70;;
23519;SDS011;11936;50.820;4.336;2024-03-02T00:11:59;0.52;;;0.50;;
23519;SDS011;11936;50.820;4.336;2024-03-02T00:14:25;0.52;;;0.52;;
23519;SDS011;11936;50.820;4.336;2024-03-02T00:16:54;1.90;;;0.60;;
23519;SDS011;11936;50.820;4.336;2024-03-02T00:19:20;1.17;;;0.63;;
23519;SDS011;11936;50.820;4.336;2024-03-02T00:21:46;0.47;;;0.47;;
23519;SDS011;11936;50.820;4.336;2024-03-02T00:24:17;1.08;;;0.52;;
23519;SDS011;11936;50.820;4.336;2024-03-02T00:26:50;1.35;;;0.70;;
23519;SDS011;11936;50.820;4.336;2024-03-02T00:29:16;0.68;;;0.63;;
23519;SDS011;11936;50.820;4.336;2024-03-02T00:31:44;0.55;;;0.55;;
23519;SDS011;11936;50.820;4.336;2024-03-02T00:34:09;0.90;;;0.80;;
23519;SDS011;11936;50.820;4.336;2024-03-02T00:36:38;0.77;;;0.60;;
23519;SDS011;11936;50.820;4.336;2024-03-02T00:39:04;0.93;;;0.90;;
23519;SDS011;11936;50.820;4.336;2024-03-02T00:41:32;0.60;;;0.60;;
23519;SDS011;11936;50.820;4.336;2024-03-02T00:46:26;0.57;;;0.57;;
23519;SDS011;11936;50.820;4.336;2024-03-02T00:48:55;0.40;;;0.40;;
23519;SDS011;11936;50.820;4.336;2024-03-02T00:51:24;2.17;;;0.60;;
23519;SDS011;11936;50.820;4.336;2024-03-02T00:53:59;2.05;;;0.77;;
23519;SDS011;11936;50.820;4.336;2024-03-02T00:56:28;0.70;;;0.60;;
23519;SDS011;11936;50.820;4.336;2024-03-02T00:58:55;0.85;;;0.63;;
23519;SDS011;11936;50.820;4.336;2024-03-02T01:01:20;0.95;;;0.70;;
23519;SDS011;11936;50.820;4.336;2024-03-02T01:03:46;1.45;;;0.47;;
23519;SDS011;11936;50.820;4.336;2024-03-02T01:06:12;0.47;;;0.47;;
23519;SDS011;11936;50.820;4.336;2024-03-02T01:08:38;0.50;;;0.50;;
23519;SDS011;11936;50.820;4.336;2024-03-02T01:11:04;0.50;;;0.50;;
23519;SDS011;11936;50.820;4.336;2024-03-02T01:13:30;0.65;;;0.50;;
23519;SDS011;11936;50.820;4.336;2024-03-02T01:15:56;0.60;;;0.60;;
23519;SDS011;11936;50.820;4.336;2024-03-02T01:18:22;0.40;;;0.40;;
23519;SDS011;11936;50.820;4.336;2024-03-02T01:20:48;1.55;;;0.57;;
23519;SDS011;11936;50.820;4.336;2024-03-02T01:23:16;3.58;;;1.10;;
23519;SDS011;11936;50.820;4.336;2024-03-02T01:25:42;0.77;;;0.60;;
23519;SDS011;11936;50.820;4.336;2024-03-02T01:28:08;1.33;;;0.55;;
23519;SDS011;11936;50.820;4.336;2024-03-02T01:30:33;1.90;;;0.75;;
23519;SDS011;11936;50.820;4.336;2024-03-02T01:32:59;1.02;;;0.70;;
23519;SDS011;11936;50.820;4.336;2024-03-02T01:35:27;0.50;;;0.50;;
23519;SDS011;11936;50.820;4.336;2024-03-02T01:37:52;1.38;;;0.60;;
23519;SDS011;11936;50.820;4.336;2024-03-02T01:40:18;2.80;;;0.73;;
23519;SDS011;11936;50.820;4.336;2024-03-02T01:42:44;3.42;;;0.82;;
23519;SDS011;11936;50.820;4.336;2024-03-02T01:45:10;1.05;;;0.52;;
23519;SDS011;11936;50.820;4.336;2024-03-02T01:47:35;0.70;;;0.70;;
23519;SDS011;11936;50.820;4.336;2024-03-02T01:50:01;2.22;;;0.80;;
23519;SDS011;11936;50.820;4.336;2024-03-02T01:52:27;1.75;;;0.73;;
23519;SDS011;11936;50.820;4.336;2024-03-02T01:54:53;0.63;;;0.57;;
23519;SDS011;11936;50.820;4.336;2024-03-02T01:57:18;1.42;;;0.80;;
23519;SDS011;11936;50.820;4.336;2024-03-02T01:59:45;0.77;;;0.60;;
23519;SDS011;11936;50.820;4.336;2024-03-02T02:02:13;1.17;;;0.75;;
23519;SDS011;11936;50.820;4.336;2024-03-02T02:04:39;2.03;;;0.80;;
23519;SDS011;11936;50.820;4.336;2024-03-02T02:07:05;4.70;;;0.93;;
23519;SDS011;11936;50.820;4.336;2024-03-02T02:09:31;1.17;;;0.70;;
23519;SDS011;11936;50.820;4.336;2024-03-02T02:11:57;3.03;;;0.80;;
23519;SDS011;11936;50.820;4.336;2024-03-02T02:14:23;0.55;;;0.55;;
23519;SDS011;11936;50.820;4.336;2024-03-02T02:16:48;2.20;;;0.93;;
23519;SDS011;11936;50.820;4.336;2024-03-02T02:19:14;3.55;;;0.70;;
23519;SDS011;11936;50.820;4.336;2024-03-02T02:21:42;3.83;;;1.00;;
23519;SDS011;11936;50.820;4.336;2024-03-02T02:24:08;3.75;;;1.00;;
23519;SDS011;11936;50.820;4.336;2024-03-02T02:26:33;2.80;;;1.00;;
23519;SDS011;11936;50.820;4.336;2024-03-02T02:28:59;0.75;;;0.70;;
23519;SDS011;11936;50.820;4.336;2024-03-02T02:31:25;1.25;;;0.60;;
23519;SDS011;11936;50.820;4.336;2024-03-02T02:33:50;1.38;;;0.77;;
23519;SDS011;11936;50.820;4.336;2024-03-02T02:36:16;0.60;;;0.60;;
23519;SDS011;11936;50.820;4.336;2024-03-02T02:38:42;4.03;;;0.93;;
23519;SDS011;11936;50.820;4.336;2024-03-02T02:41:11;1.88;;;0.80;;
23519;SDS011;11936;50.820;4.336;2024-03-02T02:43:37;2.55;;;0.90;;
23519;SDS011;11936;50.820;4.336;2024-03-02T02:46:04;0.70;;;0.70;;
23519;SDS011;11936;50.820;4.336;2024-03-02T02:48:30;2.72;;;0.90;;
23519;SDS011;11936;50.820;4.336;2024-03-02T02:50:56;2.95;;;0.90;;
23519;SDS011;11936;50.820;4.336;2024-03-02T02:53:21;2.67;;;0.93;;
23519;SDS011;11936;50.820;4.336;2024-03-02T02:55:47;3.83;;;1.00;;
23519;SDS011;11936;50.820;4.336;2024-03-02T02:58:12;0.82;;;0.80;;
23519;SDS011;11936;50.820;4.336;2024-03-02T03:00:39;0.60;;;0.60;;
23519;SDS011;11936;50.820;4.336;2024-03-02T03:03:05;1.38;;;0.65;;
23519;SDS011;11936;50.820;4.336;2024-03-02T03:05:31;1.95;;;0.95;;
23519;SDS011;11936;50.820;4.336;2024-03-02T03:07:56;2.25;;;1.13;;
23519;SDS011;11936;50.820;4.336;2024-03-02T03:10:22;1.92;;;1.10;;
23519;SDS011;11936;50.820;4.336;2024-03-02T03:12:50;2.55;;;0.85;;
23519;SDS011;11936;50.820;4.336;2024-03-02T03:15:16;0.85;;;0.80;;
23519;SDS011;11936;50.820;4.336;2024-03-02T03:17:42;4.97;;;0.68;;
23519;SDS011;11936;50.820;4.336;2024-03-02T03:20:08;0.93;;;0.70;;
23519;SDS011;11936;50.820;4.336;2024-03-02T03:22:40;3.00;;;0.80;;
23519;SDS011;11936;50.820;4.336;2024-03-02T03:25:06;3.25;;;1.88;;
23519;SDS011;11936;50.820;4.336;2024-03-02T03:27:33;2.70;;;0.82;;
23519;SDS011;11936;50.820;4.336;2024-03-02T03:29:58;2.22;;;1.27;;
23519;SDS011;11936;50.820;4.336;2024-03-02T03:32:24;4.22;;;1.00;;
23519;SDS011;11936;50.820;4.336;2024-03-02T03:34:50;3.92;;;1.40;;
23519;SDS011;11936;50.820;4.336;2024-03-02T03:37:15;1.25;;;0.95;;
23519;SDS011;11936;50.820;4.336;2024-03-02T03:39:41;2.45;;;1.20;;
23519;SDS011;11936;50.820;4.336;2024-03-02T03:42:07;3.00;;;0.80;;
23519;SDS011;11936;50.820;4.336;2024-03-02T03:44:33;3.97;;;1.00;;
23519;SDS011;11936;50.820;4.336;2024-03-02T03:46:59;3.20;;;0.90;;
23519;SDS011;11936;50.820;4.336;2024-03-02T03:49:26;2.63;;;0.98;;
23519;SDS011;11936;50.820;4.336;2024-03-02T03:51:52;1.88;;;0.95;;
23519;SDS011;11936;50.820;4.336;2024-03-02T03:54:18;3.05;;;0.90;;
23519;SDS011;11936;50.820;4.336;2024-03-02T03:56:43;3.17;;;0.95;;
23519;SDS011;11936;50.820;4.336;2024-03-02T03:59:09;2.08;;;0.60;;
23519;SDS011;11936;50.820;4.336;2024-03-02T04:01:34;2.78;;;0.60;;
23519;SDS011;11936;50.820;4.336;2024-03-02T04:04:00;1.98;;;1.00;;
23519;SDS011;11936;50.820;4.336;2024-03-02T04:06:28;4.18;;;0.70;;
23519;SDS011;11936;50.820;4.336;2024-03-02T04:08:54;1.20;;;0.70;;
23519;SDS011;11936;50.820;4.336;2024-03-02T04:11:20;1.42;;;0.80;;
23519;SDS011;11936;50.820;4.336;2024-03-02T04:13:45;2.40;;;1.35;;
23519;SDS011;11936;50.820;4.336;2024-03-02T04:16:11;1.20;;;0.70;;
23519;SDS011;11936;50.820;4.336;2024-03-02T04:18:37;2.50;;;1.02;;
23519;SDS011;11936;50.820;4.336;2024-03-02T04:21:04;1.52;;;0.80;;
23519;SDS011;11936;50.820;4.336;2024-03-02T04:23:30;3.80;;;1.00;;
23519;SDS011;11936;50.820;4.336;2024-03-02T04:25:55;5.28;;;1.05;;
23519;SDS011;11936;50.820;4.336;2024-03-02T04:28:21;2.40;;;0.88;;
23519;SDS011;11936;50.820;4.336;2024-03-02T04:30:47;1.20;;;0.82;;
23519;SDS011;11936;50.820;4.336;2024-03-02T04:33:12;1.65;;;0.95;;
23519;SDS011;11936;50.820;4.336;2024-03-02T04:35:38;0.88;;;0.80;;
23519;SDS011;11936;50.820;4.336;2024-03-02T04:38:03;4.65;;;1.02;;
23519;SDS011;11936;50.820;4.336;2024-03-02T04:40:29;0.77;;;0.73;;
23519;SDS011;11936;50.820;4.336;2024-03-02T04:42:55;1.85;;;0.93;;
23519;SDS011;11936;50.820;4.336;2024-03-02T04:45:20;8.27;;;0.90;;
23519;SDS011;11936;50.820;4.336;2024-03-02T04:47:46;1.52;;;0.80;;
23519;SDS011;11936;50.820;4.336;2024-03-02T04:50:12;3.25;;;0.85;;
23519;SDS011;11936;50.820;4.336;2024-03-02T04:52:37;2.33;;;0.93;;
23519;SDS011;11936;50.820;4.336;2024-03-02T04:55:03;3.50;;;1.05;;
23519;SDS011;11936;50.820;4.336;2024-03-02T04:57:41;2.90;;;1.00;;
23519;SDS011;11936;50.820;4.336;2024-03-02T05:00:07;2.17;;;0.90;;
23519;SDS011;11936;50.820;4.336;2024-03-02T05:02:34;3.65;;;1.10;;
23519;SDS011;11936;50.820;4.336;2024-03-02T05:05:00;2.53;;;1.00;;
23519;SDS011;11936;50.820;4.336;2024-03-02T05:07:25;2.08;;;0.93;;
23519;SDS011;11936;50.820;4.336;2024-03-02T05:09:51;2.20;;;0.73;;
23519;SDS011;11936;50.820;4.336;2024-03-02T05:12:17;5.93;;;0.93;;
23519;SDS011;11936;50.820;4.336;2024-03-02T05:15:08;2.05;;;1.35;;
23519;SDS011;11936;50.820;4.336;2024-03-02T05:17:41;1.92;;;1.15;;
23519;SDS011;11936;50.820;4.336;2024-03-02T05:20:10;5.18;;;1.02;;
23519;SDS011;11936;50.820;4.336;2024-03-02T05:22:36;1.55;;;0.77;;
23519;SDS011;11936;50.820;4.336;2024-03-02T05:25:02;2.58;;;0.93;;
23519;SDS011;11936;50.820;4.336;2024-03-02T05:27:28;2.33;;;0.98;;
23519;SDS011;11936;50.820;4.336;2024-03-02T05:29:54;4.10;;;0.93;;
23519;SDS011;11936;50.820;4.336;2024-03-02T05:32:19;3.35;;;0.85;;
23519;SDS011;11936;50.820;4.336;2024-03-02T05:34:45;1.45;;;0.90;;
23519;SDS011;11936;50.820;4.336;2024-03-02T05:37:11;3.30;;;0.98;;
23519;SDS011;11936;50.820;4.336;2024-03-02T05:39:36;3.55;;;0.98;;
23519;SDS011;11936;50.820;4.336;2024-03-02T05:42:02;2.60;;;1.20;;
23519;SDS011;11936;50.820;4.336;2024-03-02T05:44:28;2.60;;;0.90;;
23519;SDS011;11936;50.820;4.336;2024-03-02T05:46:54;3.38;;;1.20;;
23519;SDS011;11936;50.820;4.336;2024-03-02T05:49:20;5.70;;;1.00;;
23519;SDS011;11936;50.820;4.336;2024-03-02T05:51:45;2.60;;;1.05;;
23519;SDS011;11936;50.820;4.336;2024-03-02T05:54:11;4.63;;;1.17;;
23519;SDS011;11936;50.820;4.336;2024-03-02T05:56:37;2.38;;;1.23;;
23519;SDS011;11936;50.820;4.336;2024-03-02T05:59:02;2.65;;;1.10;;
23519;SDS011;11936;50.820;4.336;2024-03-02T06:04:07;4.53;;;1.23;;
23519;SDS011;11936;50.820;4.336;2024-03-02T06:06:34;7.32;;;1.08;;
23519;SDS011;11936;50.820;4.336;2024-03-02T06:09:02;4.00;;;1.05;;
23519;SDS011;11936;50.820;4.336;2024-03-02T06:11:32;6.22;;;1.55;;
23519;SDS011;11936;50.820;4.336;2024-03-02T06:14:01;4.10;;;1.13;;
23519;SDS011;11936;50.820;4.336;2024-03-02T06:16:27;5.00;;;1.05;;
23519;SDS011;11936;50.820;4.336;2024-03-02T06:18:53;4.72;;;1.08;;
23519;SDS011;11936;50.820;4.336;2024-03-02T06:21:19;4.65;;;1.20;;
23519;SDS011;11936;50.820;4.336;2024-03-02T06:23:45;3.72;;;1.02;;
23519;SDS011;11936;50.820;4.336;2024-03-02T06:26:11;2.95;;;1.23;;
23519;SDS011;11936;50.820;4.336;2024-03-02T06:28:37;3.75;;;1.13;;
23519;SDS011;11936;50.820;4.336;2024-03-02T06:31:03;5.90;;;1.17;;
23519;SDS011;11936;50.820;4.336;2024-03-02T06:33:29;2.45;;;1.25;;
23519;SDS011;11936;50.820;4.336;2024-03-02T06:35:55;3.55;;;1.20;;
23519;SDS011;11936;50.820;4.336;2024-03-02T06:38:20;1.63;;;1.20;;
23519;SDS011;11936;50.820;4.336;2024-03-02T06:40:46;3.67;;;1.27;;
23519;SDS011;11936;50.820;4.336;2024-03-02T06:43:11;4.55;;;1.33;;
23519;SDS011;11936;50.820;4.336;2024-03-02T06:45:37;3.65;;;1.25;;
23519;SDS011;11936;50.820;4.336;2024-03-02T06:48:03;4.13;;;1.65;;
23519;SDS011;11936;50.820;4.336;2024-03-02T06:50:28;4.65;;;1.30;;
23519;SDS011;11936;50.820;4.336;2024-03-02T06:52:54;4.05;;;1.23;;
23519;SDS011;11936;50.820;4.336;2024-03-02T06:55:21;5.05;;;1.42;;
23519;SDS011;11936;50.820;4.336;2024-03-02T06:57:47;6.60;;;1.77;;
23519;SDS011;11936;50.820;4.336;2024-03-02T07:00:12;4.53;;;1.42;;
23519;SDS011;11936;50.820;4.336;2024-03-02T07:02:39;6.68;;;1.30;;
23519;SDS011;11936;50.820;4.336;2024-03-02T07:05:06;3.95;;;1.20;;
23519;SDS011;11936;50.820;4.336;2024-03-02T07:07:33;1.80;;;1.40;;
23519;SDS011;11936;50.820;4.336;2024-03-02T07:09:59;3.15;;;1.48;;
23519;SDS011;11936;50.820;4.336;2024-03-02T07:12:25;6.95;;;1.70;;
23519;SDS011;11936;50.820;4.336;2024-03-02T07:14:51;8.68;;;1.90;;
23519;SDS011;11936;50.820;4.336;2024-03-02T07:17:32;6.60;;;1.80;;
23519;SDS011;11936;50.820;4.336;2024-03-02T07:19:58;5.55;;;1.20;;
23519;SDS011;11936;50.820;4.336;2024-03-02T07:22:24;5.60;;;1.38;;
23519;SDS011;11936;50.820;4.336;2024-03-02T07:24:49;2.15;;;0.82;;
23519;SDS011;11936;50.820;4.336;2024-03-02T07:27:15;5.18;;;1.55;;
23519;SDS011;11936;50.820;4.336;2024-03-02T07:29:41;5.63;;;1.75;;
23519;SDS011;11936;50.820;4.336;2024-03-02T07:32:07;5.55;;;1.77;;
23519;SDS011;11936;50.820;4.336;2024-03-02T07:34:33;4.60;;;1.30;;
23519;SDS011;11936;50.820;4.336;2024-03-02T07:36:59;4.70;;;1.35;;
23519;SDS011;11936;50.820;4.336;2024-03-02T07:39:25;3.50;;;1.50;;
23519;SDS011;11936;50.820;4.336;2024-03-02T07:41:51;7.05;;;2.05;;
23519;SDS011;11936;50.820;4.336;2024-03-02T07:44:17;4.50;;;1.33;;
23519;SDS011;11936;50.820;4.336;2024-03-02T07:46:44;5.45;;;1.45;;
23519;SDS011;11936;50.820;4.336;2024-03-02T07:49:17;6.18;;;1.23;;
23519;SDS011;11936;50.820;4.336;2024-03-02T07:51:43;6.18;;;1.50;;
23519;SDS011;11936;50.820;4.336;2024-03-02T07:54:09;9.05;;;1.45;;
23519;SDS011;11936;50.820;4.336;2024-03-02T07:56:35;9.05;;;1.77;;
23519;SDS011;11936;50.820;4.336;2024-03-02T07:59:01;5.75;;;1.27;;
23519;SDS011;11936;50.820;4.336;2024-03-02T08:01:27;4.13;;;1.63;;
23519;SDS011;11936;50.820;4.336;2024-03-02T08:03:57;3.50;;;1.50;;
23519;SDS011;11936;50.820;4.336;2024-03-02T08:06:29;7.65;;;1.50;;
23519;SDS011;11936;50.820;4.336;2024-03-02T08:08:56;7.45;;;2.00;;
23519;SDS011;11936;50.820;4.336;2024-03-02T08:11:23;3.85;;;1.80;;
23519;SDS011;11936;50.820;4.336;2024-03-02T08:13:48;4.32;;;1.60;;
23519;SDS011;11936;50.820;4.336;2024-03-02T08:16:15;8.00;;;1.45;;
23519;SDS011;11936;50.820;4.336;2024-03-02T08:21:09;7.35;;;1.80;;
23519;SDS011;11936;50.820;4.336;2024-03-02T08:23:35;9.63;;;1.88;;
23519;SDS011;11936;50.820;4.336;2024-03-02T08:26:00;5.00;;;1.58;;
23519;SDS011;11936;50.820;4.336;2024-03-02T08:28:26;4.10;;;1.13;;
23519;SDS011;11936;50.820;4.336;2024-03-02T08:30:52;2.55;;;1.60;;
23519;SDS011;11936;50.820;4.336;2024-03-02T08:33:17;5.05;;;1.88;;
23519;SDS011;11936;50.820;4.336;2024-03-02T08:35:43;5.60;;;1.75;;
23519;SDS011;11936;50.820;4.336;2024-03-02T08:38:09;5.15;;;1.92;;
23519;SDS011;11936;50.820;4.336;2024-03-02T08:40:34;9.23;;;1.73;;
23519;SDS011;11936;50.820;4.336;2024-03-02T08:43:00;5.70;;;1.95;;
23519;SDS011;11936;50.820;4.336;2024-03-02T08:45:26;7.07;;;1.55;;
23519;SDS011;11936;50.820;4.336;2024-03-02T08:47:51;8.05;;;1.95;;
23519;SDS011;11936;50.820;4.336;2024-03-02T08:50:17;9.05;;;1.45;;
23519;SDS011;11936;50.820;4.336;2024-03-02T08:52:43;8.88;;;1.20;;
23519;SDS011;11936;50.820;4.336;2024-03-02T08:55:08;4.20;;;1.80;;
23519;SDS011;11936;50.820;4.336;2024-03-02T08:57:36;8.88;;;1.75;;
23519;SDS011;11936;50.820;4.336;2024-03-02T09:00:02;4.55;;;1.30;;
23519;SDS011;11936;50.820;4.336;2024-03-02T09:02:30;5.95;;;1.73;;
23519;SDS011;11936;50.820;4.336;2024-03-02T09:04:56;5.82;;;1.60;;
23519;SDS011;11936;50.820;4.336;2024-03-02T09:07:22;7.95;;;1.63;;
23519;SDS011;11936;50.820;4.336;2024-03-02T09:09:47;7.00;;;1.60;;
23519;SDS011;11936;50.820;4.336;2024-03-02T09:12:13;10.05;;;1.55;;
23519;SDS011;11936;50.820;4.336;2024-03-02T09:14:39;6.90;;;1.40;;
23519;SDS011;11936;50.820;4.336;2024-03-02T09:17:05;4.53;;;1.48;;
23519;SDS011;11936;50.820;4.336;2024-03-02T09:19:31;7.40;;;1.52;;
23519;SDS011;11936;50.820;4.336;2024-03-02T09:21:56;3.95;;;1.40;;
23519;SDS011;11936;50.820;4.336;2024-03-02T09:24:23;6.85;;;1.80;;
23519;SDS011;11936;50.820;4.336;2024-03-02T09:26:49;10.73;;;1.73;;
23519;SDS011;11936;50.820;4.336;2024-03-02T09:29:15;4.47;;;1.55;;
23519;SDS011;11936;50.820;4.336;2024-03-02T09:31:41;7.13;;;1.80;;
23519;SDS011;11936;50.820;4.336;2024-03-02T09:34:07;2.92;;;1.58;;
23519;SDS011;11936;50.820;4.336;2024-03-02T09:36:33;6.05;;;1.63;;
23519;SDS011;11936;50.820;4.336;2024-03-02T09:38:58;5.75;;;1.73;;
23519;SDS011;11936;50.820;4.336;2024-03-02T09:41:24;2.60;;;1.30;;
23519;SDS011;11936;50.820;4.336;2024-03-02T09:43:50;6.93;;;1.35;;
23519;SDS011;11936;50.820;4.336;2024-03-02T09:46:16;8.88;;;1.90;;
23519;SDS011;11936;50.820;4.336;2024-03-02T09:48:46;4.50;;;1.52;;
23519;SDS011;11936;50.820;4.336;2024-03-02T09:53:38;13.05;;;1.58;;
23519;SDS011;11936;50.820;4.336;2024-03-02T09:56:04;4.60;;;0.98;;
23519;SDS011;11936;50.820;4.336;2024-03-02T09:58:30;3.88;;;1.25;;
23519;SDS011;11936;50.820;4.336;2024-03-02T10:00:56;4.53;;;1.42;;
23519;SDS011;11936;50.820;4.336;2024-03-02T10:03:24;3.03;;;1.40;;
23519;SDS011;11936;50.820;4.336;2024-03-02T10:05:50;3.10;;;1.20;;
23519;SDS011;11936;50.820;4.336;2024-03-02T10:08:16;4.82;;;1.17;;
23519;SDS011;11936;50.820;4.336;2024-03-02T10:10:42;9.27;;;2.35;;
23519;SDS011;11936;50.820;4.336;2024-03-02T10:13:09;3.40;;;1.20;;
23519;SDS011;11936;50.820;4.336;2024-03-02T10:15:35;10.32;;;1.70;;
23519;SDS011;11936;50.820;4.336;2024-03-02T10:18:02;10.02;;;1.58;;
23519;SDS011;11936;50.820;4.336;2024-03-02T10:20:29;6.55;;;2.00;;
23519;SDS011;11936;50.820;4.336;2024-03-02T10:23:10;6.32;;;1.20;;
23519;SDS011;11936;50.820;4.336;2024-03-02T10:25:40;7.97;;;1.55;;
23519;SDS011;11936;50.820;4.336;2024-03-02T10:28:05;4.88;;;1.45;;
23519;SDS011;11936;50.820;4.336;2024-03-02T10:30:34;4.35;;;1.45;;
23519;SDS011;11936;50.820;4.336;2024-03-02T10:33:03;8.20;;;1.80;;
23519;SDS011;11936;50.820;4.336;2024-03-02T10:35:30;7.80;;;1.73;;
23519;SDS011;11936;50.820;4.336;2024-03-02T10:37:58;4.20;;;1.75;;
23519;SDS011;11936;50.820;4.336;2024-03-02T10:40:26;6.65;;;1.70;;
23519;SDS011;11936;50.820;4.336;2024-03-02T10:42:52;4.15;;;1.35;;
23519;SDS011;11936;50.820;4.336;2024-03-02T10:45:18;5.82;;;1.38;;
23519;SDS011;11936;50.820;4.336;2024-03-02T10:47:47;3.92;;;1.50;;
23519;SDS011;11936;50.820;4.336;2024-03-02T10:50:12;7.63;;;1.58;;
23519;SDS011;11936;50.820;4.336;2024-03-02T10:52:38;8.07;;;1.35;;
23519;SDS011;11936;50.820;4.336;2024-03-02T10:55:05;4.05;;;1.52;;
23519;SDS011;11936;50.820;4.336;2024-03-02T11:00:19;10.10;;;1.83;;
23519;SDS011;11936;50.820;4.336;2024-03-02T11:02:50;3.95;;;1.42;;
23519;SDS011;11936;50.820;4.336;2024-03-02T11:05:27;7.35;;;1.85;;
23519;SDS011;11936;50.820;4.336;2024-03-02T11:08:06;10.52;;;1.65;;
23519;SDS011;11936;50.820;4.336;2024-03-02T11:10:51;10.30;;;1.30;;
23519;SDS011;11936;50.820;4.336;2024-03-02T11:13:32;5.97;;;1.50;;
23519;SDS011;11936;50.820;4.336;2024-03-02T11:16:00;6.10;;;1.48;;
23519;SDS011;11936;50.820;4.336;2024-03-02T11:18:31;9.38;;;1.83;;
23519;SDS011;11936;50.820;4.336;2024-03-02T11:20:58;7.90;;;1.50;;
23519;SDS011;11936;50.820;4.336;2024-03-02T11:23:34;11.43;;;1.73;;
23519;SDS011;11936;50.820;4.336;2024-03-02T11:26:19;3.95;;;1.50;;
23519;SDS011;11936;50.820;4.336;2024-03-02T11:28:45;7.38;;;1.42;;
23519;SDS011;11936;50.820;4.336;2024-03-02T11:31:11;6.03;;;1.30;;
23519;SDS011;11936;50.820;4.336;2024-03-02T11:33:36;3.63;;;1.58;;
23519;SDS011;11936;50.820;4.336;2024-03-02T11:36:02;8.98;;;1.50;;
23519;SDS011;11936;50.820;4.336;2024-03-02T11:38:32;14.85;;;1.80;;
23519;SDS011;11936;50.820;4.336;2024-03-02T11:41:07;8.00;;;2.03;;
23519;SDS011;11936;50.820;4.336;2024-03-02T11:43:36;10.80;;;2.70;;
23519;SDS011;11936;50.820;4.336;2024-03-02T11:46:04;5.53;;;1.80;;
23519;SDS011;11936;50.820;4.336;2024-03-02T11:48:34;5.10;;;1.50;;
23519;SDS011;11936;50.820;4.336;2024-03-02T11:51:02;6.10;;;1.90;;
23519;SDS011;11936;50.820;4.336;2024-03-02T11:53:27;5.15;;;1.63;;
23519;SDS011;11936;50.820;4.336;2024-03-02T11:55:56;5.25;;;1.55;;
23519;SDS011;11936;50.820;4.336;2024-03-02T11:58:23;5.80;;;1.10;;
23519;SDS011;11936;50.820;4.336;2024-03-02T12:00:52;13.00;;;1.80;;
23519;SDS011;11936;50.820;4.336;2024-03-02T12:03:20;10.05;;;1.58;;
23519;SDS011;11936;50.820;4.336;2024-03-02T12:05:51;5.68;;;1.33;;
23519;SDS011;11936;50.820;4.336;2024-03-02T12:08:19;2.85;;;1.33;;
23519;SDS011;11936;50.820;4.336;2024-03-02T12:10:56;5.95;;;1.80;;
23519;SDS011;11936;50.820;4.336;2024-03-02T12:13:22;4.32;;;1.40;;
23519;SDS011;11936;50.820;4.336;2024-03-02T12:15:48;6.13;;;1.70;;
23519;SDS011;11936;50.820;4.336;2024-03-02T12:18:19;3.80;;;1.10;;
23519;SDS011;11936;50.820;4.336;2024-03-02T12:20:44;6.75;;;1.73;;
23519;SDS011;11936;50.820;4.336;2024-03-02T12:23:10;7.28;;;3.28;;
23519;SDS011;11936;50.820;4.336;2024-03-02T12:25:36;7.45;;;1.85;;
23519;SDS011;11936;50.820;4.336;2024-03-02T12:28:01;6.55;;;1.60;;
23519;SDS011;11936;50.820;4.336;2024-03-02T12:30:30;5.70;;;1.50;;
23519;SDS011;11936;50.820;4.336;2024-03-02T12:33:00;3.92;;;1.40;;
23519;SDS011;11936;50.820;4.336;2024-03-02T12:35:25;3.80;;;1.45;;
23519;SDS011;11936;50.820;4.336;2024-03-02T12:37:51;6.22;;;1.70;;
23519;SDS011;11936;50.820;4.336;2024-03-02T12:40:18;2.88;;;1.20;;
23519;SDS011;11936;50.820;4.336;2024-03-02T12:42:45;4.93;;;1.10;;
23519;SDS011;11936;50.820;4.336;2024-03-02T12:45:12;4.68;;;1.15;;
23519;SDS011;11936;50.820;4.336;2024-03-02T12:47:39;4.97;;;1.60;;
23519;SDS011;11936;50.820;4.336;2024-03-02T12:50:05;5.35;;;1.00;;
23519;SDS011;11936;50.820;4.336;2024-03-02T12:52:32;1.80;;;1.30;;
23519;SDS011;11936;50.820;4.336;2024-03-02T12:54:59;6.25;;;1.30;;
23519;SDS011;11936;50.820;4.336;2024-03-02T12:57:29;6.95;;;1.23;;
23519;SDS011;11936;50.820;4.336;2024-03-02T12:59:58;7.00;;;1.35;;
23519;SDS011;11936;50.820;4.336;2024-03-02T13:02:28;2.60;;;1.17;;
23519;SDS011;11936;50.820;4.336;2024-03-02T13:04:54;7.20;;;1.80;;
23519;SDS011;11936;50.820;4.336;2024-03-02T13:07:21;5.78;;;1.30;;
23519;SDS011;11936;50.820;4.336;2024-03-02T13:09:49;3.83;;;1.20;;
23519;SDS011;11936;50.820;4.336;2024-03-02T13:12:15;3.78;;;1.30;;
23519;SDS011;11936;50.820;4.336;2024-03-02T13:14:42;2.17;;;1.13;;
23519;SDS011;11936;50.820;4.336;2024-03-02T13:17:08;1.60;;;0.73;;
23519;SDS011;11936;50.820;4.336;2024-03-02T13:19:43;2.95;;;1.02;;
23519;SDS011;11936;50.820;4.336;2024-03-02T13:22:21;3.30;;;1.67;;
23519;SDS011;11936;50.820;4.336;2024-03-02T13:24:48;5.05;;;1.33;;
23519;SDS011;11936;50.820;4.336;2024-03-02T13:27:13;3.90;;;1.20;;
23519;SDS011;11936;50.820;4.336;2024-03-02T13:29:39;2.30;;;0.90;;
23519;SDS011;11936;50.820;4.336;2024-03-02T13:32:05;2.63;;;1.15;;
23519;SDS011;11936;50.820;4.336;2024-03-02T13:34:31;2.47;;;0.93;;
23519;SDS011;11936;50.820;4.336;2024-03-02T13:36:56;1.48;;;0.73;;
23519;SDS011;11936;50.820;4.336;2024-03-02T13:39:22;2.42;;;0.98;;
23519;SDS011;11936;50.820;4.336;2024-03-02T13:41:48;4.75;;;1.20;;
23519;SDS011;11936;50.820;4.336;2024-03-02T13:44:21;1.15;;;0.70;;
23519;SDS011;11936;50.820;4.336;2024-03-02T13:49:13;4.63;;;1.45;;
23519;SDS011;11936;50.820;4.336;2024-03-02T13:51:39;2.15;;;1.00;;
23519;SDS011;11936;50.820;4.336;2024-03-02T13:54:05;6.93;;;1.48;;
23519;SDS011;11936;50.820;4.336;2024-03-02T13:56:30;1.15;;;0.95;;
23519;SDS011;11936;50.820;4.336;2024-03-02T13:58:57;3.15;;;1.08;;
23519;SDS011;11936;50.820;4.336;2024-03-02T14:01:23;5.90;;;2.55;;
23519;SDS011;11936;50.820;4.336;2024-03-02T14:03:49;4.22;;;1.42;;
23519;SDS011;11936;50.820;4.336;2024-03-02T14:06:15;4.95;;;1.20;;
23519;SDS011;11936;50.820;4.336;2024-03-02T14:08:41;2.50;;;1.15;;
23519;SDS011;11936;50.820;4.336;2024-03-02T14:11:09;2.00;;;1.15;;
23519;SDS011;11936;50.820;4.336;2024-03-02T14:13:39;3.42;;;1.10;;
23519;SDS011;11936;50.820;4.336;2024-03-02T14:16:06;3.45;;;1.08;;
23519;SDS011;11936;50.820;4.336;2024-03-02T14:18:31;4.13;;;1.40;;
23519;SDS011;11936;50.820;4.336;2024-03-02T14:20:57;1.77;;;0.88;;
23519;SDS011;11936;50.820;4.336;2024-03-02T14:23:23;2.97;;;0.80;;
23519;SDS011;11936;50.820;4.336;2024-03-02T14:25:50;2.40;;;1.58;;
23519;SDS011;11936;50.820;4.336;2024-03-02T14:28:16;1.80;;;1.13;;
23519;SDS011;11936;50.820;4.336;2024-03-02T14:30:42;2.67;;;1.27;;
23519;SDS011;11936;50.820;4.336;2024-03-02T14:33:07;2.28;;;1.15;;
23519;SDS011;11936;50.820;4.336;2024-03-02T14:35:33;2.30;;;1.20;;
23519;SDS011;11936;50.820;4.336;2024-03-02T14:37:59;2.05;;;1.02;;
23519;SDS011;11936;50.820;4.336;2024-03-02T14:40:24;2.17;;;0.98;;
23519;SDS011;11936;50.820;4.336;2024-03-02T14:42:52;4.53;;;2.33;;
23519;SDS011;11936;50.820;4.336;2024-03-02T14:45:18;2.88;;;1.27;;
23519;SDS011;11936;50.820;4.336;2024-03-02T14:47:44;3.72;;;1.48;;
23519;SDS011;11936;50.820;4.336;2024-03-02T14:50:09;4.00;;;1.75;;
23519;SDS011;11936;50.820;4.336;2024-03-02T14:52:36;3.60;;;1.15;;
23519;SDS011;11936;50.820;4.336;2024-03-02T14:55:01;2.85;;;1.35;;
23519;SDS011;11936;50.820;4.336;2024-03-02T14:57:32;4.78;;;1.15;;
23519;SDS011;11936;50.820;4.336;2024-03-02T14:59:58;3.25;;;1.30;;
23519;SDS011;11936;50.820;4.336;2024-03-02T15:02:23;6.53;;;1.38;;